Latest Coastal Weather Observations for Eucla

IDS60701

Issued at 1:11 pm CDT Wednesday 4 March 2015 (issued every 10 minutes, with the page automatically refreshed every 10 minutes)

About coastal observations | Map of coastal stations | Coastal observations for SA | Marine services | Other Formats
Station Details ID: 011003 Name: EUCLA Lat: -31.68 Lon: 128.90 Height: 93.1 m
Data from the previous 72 hours. | See also: Recent months at Eucla
Date/Time
CDT
Temp

°C
Wind Pressure Rain
since 9am
mm
Weather Cloud Vis
km
Sea
Height
m
Swell
Dir
 
Speed
knots
Gust
knots
hPa Trend Height
m
Period
s
Dir
04/01:00pm 20.9 SSE 8 13 1023.6 - 0.0 - - - - - - -
04/12:30pm 20.4 SSE 8 13 1023.7 - 0.0 - - - - - - -
04/12:00pm 20.2 SE 8 14 1023.5 - 0.0 - - - - - - -
04/11:30am 20.0 SSE 8 14 1023.0 - 1.0 Fine Mostly cloudy 40 - - - -
04/11:00am 20.2 SSE 9 15 1022.7 - 1.0 - - - - - - -
04/10:30am 20.3 SSE 9 14 1022.6 - 1.0 - - - - - - -
04/10:00am 19.6 SSE 9 15 1022.5 - 1.0 - - - - - - -
04/09:30am 19.1 SSE 11 16 1022.2 - 1.0 - - - - - - -
04/09:00am 18.7 SSE 10 16 1021.9 - 1.0 - - - - - - -
04/08:30am 18.1 SSE 9 14 1021.7 - 1.0 - - - - - - -
04/08:00am 17.9 SSE 8 13 1021.1 - 1.0 - - - - - - -
04/07:30am 17.6 SE 8 11 1020.9 - 1.0 - - - - - - -
04/07:00am 17.2 SE 6 8 1020.7 - 1.0 - - - - - - -
04/06:30am 17.4 SE 7 9 1020.4 - 1.0 - - - - - - -
04/06:00am 17.6 SE 7 10 1020.3 - 1.0 - - - - - - -
04/05:30am 17.7 SE 7 10 1020.2 - 1.0 - - - - - - -
04/05:00am 17.7 SE 7 10 1020.1 - 1.0 - - - - - - -
04/04:30am 17.5 SE 7 10 1020.3 - 1.0 - - - - - - -
04/04:00am 17.6 SE 6 10 1020.5 - 1.0 - - - - - - -
04/03:30am 17.7 SE 7 9 1020.7 - 1.0 - - - - - - -
04/03:00am 17.7 SE 8 13 1020.9 - 1.0 - - - - - - -
04/02:30am 17.7 SE 8 11 1021.3 - 1.0 - - - - - - -
04/02:00am 17.8 SE 8 12 1021.5 - 1.0 - - - - - - -
04/01:30am 17.7 SE 7 11 1021.8 - 1.0 - - - - - - -
04/01:00am 17.9 SE 8 11 1021.7 - 1.0 - - - - - - -
04/12:30am 18.0 SE 9 12 1021.8 - 1.0 - - - - - - -
04/12:00am 18.2 SE 8 11 1022.0 - 1.0 - - - - - - -
 
Date/Time
CDT
Temp

°C
Wind Pressure Rain
since 9am
mm
Weather Cloud Vis
km
Sea
Height
m
Swell
Dir
 
Speed
knots
Gust
knots
hPa Trend Height
m
Period
s
Dir
03/11:30pm 18.3 SE 7 11 1022.4 - 1.0 - - - - - - -
03/11:00pm 18.3 SE 7 10 1022.4 - 1.0 - - - - - - -
03/10:30pm 18.2 SE 8 14 1022.2 - 1.0 - - - - - - -
03/10:00pm 18.2 SE 8 11 1021.9 - 1.0 - - - - - - -
03/09:30pm 18.0 SE 7 10 1021.4 - 1.0 - - - - - - -
03/09:00pm 18.0 SE 8 11 1021.0 - 1.0 - - - - - - -
03/08:30pm 18.2 SE 8 13 1020.8 - 1.0 - - - - - - -
03/08:00pm 18.2 SE 9 14 1020.4 - 1.0 - - - - - - -
03/07:30pm 18.0 SE 8 11 1020.3 - 1.0 - - - - - - -
03/07:00pm 18.2 SE 9 14 1020.2 - 0.8 - - - - - - -
03/06:30pm 18.1 SE 10 16 1019.8 - 0.8 - - - - - - -
03/06:00pm 18.7 SE 11 17 1019.6 - 0.6 - - - - - - -
03/05:30pm 18.8 SE 10 16 1019.6 - 0.6 Drizzle Cloudy 5 - - - -
03/05:00pm 18.6 SE 10 18 1019.7 - 0.6 - - - - - - -
03/04:30pm 18.4 SE 9 15 1019.6 - 0.6 - - - - - - -
03/04:00pm 19.3 SE 9 14 1020.0 - 0.6 - - - - - - -
03/03:30pm 19.2 ESE 11 16 1020.0 - 0.6 - - - - - - -
03/03:00pm 19.8 SE 10 16 1020.0 - 0.6 - - - - - - -
03/02:30pm 19.6 SSE 11 15 1019.9 - 0.6 Recent precip. - - - - - -
03/02:00pm 19.0 SE 7 10 1020.1 - 0.6 - - - - - - -
03/01:30pm 18.7 SE 9 14 1020.5 - 0.2 - - - - - - -
03/01:00pm 19.5 SE 9 15 1020.5 - 0.0 - - - - - - -
03/12:30pm 19.5 SE 9 14 1020.6 - 0.0 - - - - - - -
03/12:00pm 19.2 SE 7 11 1020.3 - 0.0 - - - - - - -
03/11:30am 19.0 SE 11 17 1020.2 - 7.4 Fine Cloudy 15 - - - -
03/11:00am 19.6 SE 9 15 1019.9 - 7.4 - - - - - - -
03/10:30am 19.4 SE 11 18 1019.7 - 7.4 - - - - - - -
03/10:00am 19.0 SE 8 13 1019.6 - 7.4 - - - - - - -
03/09:30am 18.4 SE 9 13 1019.8 - 7.4 - - - - - - -
03/09:00am 18.6 SE 7 9 1019.6 - 7.4 - - - - - - -
03/08:30am 17.8 ESE 6 8 1019.2 - 7.4 Recent precip. - - - - - -
03/08:00am 17.9 SE 6 10 1018.8 - 7.2 - - - - - - -
03/07:30am 17.5 ESE 4 5 1018.2 - 6.8 - - - - - - -
03/07:00am 17.3 ESE 5 6 1018.0 - 6.8 - - - - - - -
03/06:30am 17.3 E 5 6 1017.9 - 6.8 - - - - - - -
03/06:00am 17.6 ESE 7 10 1017.6 - 6.8 - - - - - - -
03/05:30am 17.2 ESE 7 10 1017.7 - 6.8 Recent precip. - - - - - -
03/05:00am 18.2 SSE 6 7 1017.6 - 6.4 - - - - - - -
03/04:30am 17.9 SE 5 7 1017.3 - 6.4 - - - - - - -
03/04:00am 18.1 SE 5 7 1017.5 - 6.4 - - - - - - -
03/03:30am 18.1 SE 6 8 1017.4 - 6.4 - - - - - - -
03/03:00am 18.1 SE 5 8 1017.4 - 6.4 - - - - - - -
03/02:30am 18.0 ESE 6 8 1017.6 - 6.4 - - - - - - -
03/02:00am 18.0 SE 6 8 1017.6 - 6.4 - - - - - - -
03/01:30am 18.2 ESE 7 11 1017.5 - 6.4 - - - - - - -
03/01:00am 18.1 SE 8 13 1017.4 - 6.4 - - - - - - -
03/12:30am 18.1 SE 8 12 1016.9 - 6.4 - - - - - - -
03/12:00am 17.8 ESE 7 10 1017.2 - 6.4 - - - - - - -
 
Date/Time
CDT
Temp

°C
Wind Pressure Rain
since 9am
mm
Weather Cloud Vis
km
Sea
Height
m
Swell
Dir
 
Speed
knots
Gust
knots
hPa Trend Height
m
Period
s
Dir
02/11:30pm 17.7 SE 6 10 1017.6 - 6.4 - - - - - - -
02/11:00pm 17.7 ESE 6 9 1017.5 - 6.4 - - - - - - -
02/10:30pm 17.7 ESE 7 13 1017.5 - 6.4 - - - - - - -
02/10:00pm 17.7 ESE 8 13 1016.8 - 6.4 - - - - - - -
02/09:30pm 17.5 ESE 8 14 1016.6 - 6.4 - - - - - - -
02/09:00pm 17.4 ESE 9 16 1015.5 - 6.4 - - - - - - -
02/08:30pm 17.2 ESE 7 11 1015.3 - 6.4 - - - - - - -
02/08:00pm 17.3 ESE 8 14 1015.1 - 6.4 - - - - - - -
02/07:30pm 17.1 ESE 8 12 1015.2 - 6.4 - - - - - - -
02/07:00pm 16.9 ESE 7 10 1015.1 - 6.4 - - - - - - -
02/06:30pm 16.8 ESE 8 12 1015.1 - 6.4 - - - - - - -
02/06:00pm 16.5 ESE 7 10 1015.2 - 6.2 - - - - - - -
02/05:30pm 16.0 SE 8 11 1015.6 - 6.0 Drizzle Cloudy 5 - - - -
02/05:00pm 16.6 ESE 6 10 1015.2 - 5.8 - - - - - - -
02/04:30pm 16.8 SE 7 11 1015.1 - 5.8 - - - - - - -
02/04:00pm 16.9 SSE 7 10 1015.1 - 5.8 - - - - - - -
02/03:30pm 16.7 SE 6 9 1015.1 - 5.8 - - - - - - -
02/03:00pm 16.7 SSE 7 11 1015.3 - 5.8 - - - - - - -
02/02:30pm 16.7 SE 6 9 1015.3 - 5.2 Rain - - - - - -
02/02:00pm 16.6 SE 7 9 1015.5 - 4.6 - - - - - - -
02/01:30pm 17.6 E 5 7 1015.6 - 2.4 - - - - - - -
02/01:00pm 17.9 ESE 5 7 1015.9 - 1.0 - - - - - - -
02/12:30pm 17.8 ESE 5 7 1015.9 - 0.8 - - - - - - -
02/12:00pm 17.9 E 6 7 1015.7 - 0.4 - - - - - - -
02/11:30am 17.4 NE 4 5 1016.1 - 3.6 Drizzle Cloudy 5 - - - -
02/11:00am 17.7 CALM 0 0 1016.1 - 3.0 - - - - - - -
02/10:30am 17.4 N 3 4 1015.9 - 2.6 - - - - - - -
02/10:00am 17.3 N 4 6 1015.4 - 2.4 - - - - - - -
02/09:30am 17.1 NE 4 6 1014.9 - 2.4 - - - - - - -
02/09:00am 16.7 E 4 4 1014.9 - 2.4 - - - - - - -
02/08:30am 16.2 NE 5 5 1015.0 - 2.4 - - - - - - -
02/08:00am 16.3 N 4 4 1015.1 - 2.4 - - - - - - -
02/07:30am 16.2 N 4 4 1014.5 - 2.4 - - - - - - -
02/07:00am 16.3 N 5 6 1013.9 - 2.0 - - - - - - -
02/06:30am 16.5 NW 4 6 1013.8 - 1.4 - - - - - - -
02/06:00am 17.1 NNE 4 5 1013.6 - 0.6 - - - - - - -
02/05:30am 17.7 ESE 7 10 1012.7 - 0.0 - - - - - - -
02/05:00am 17.3 ESE 4 6 1012.6 - 0.0 - - - - - - -
02/04:30am 17.5 E 5 7 1013.0 - 0.0 - - - - - - -
02/04:00am 17.4 E 6 8 1013.2 - 0.0 - - - - - - -
02/03:30am 17.5 ENE 8 14 1013.2 - 0.0 - - - - - - -
02/03:00am 17.9 E 9 15 1012.9 - 0.0 - - - - - - -
02/02:30am 18.0 E 9 13 1013.5 - 0.0 - - - - - - -
02/02:00am 18.0 E 10 17 1013.6 - 0.0 - - - - - - -
02/01:30am 18.1 E 9 14 1013.9 - 0.0 - - - - - - -
02/01:00am 18.2 E 11 17 1014.1 - 0.0 - - - - - - -
02/12:30am 18.2 E 10 17 1014.7 - 0.0 - - - - - - -
02/12:00am 18.3 ESE 9 15 1015.0 - 0.0 - - - - - - -
 
Date/Time
CDT
Temp

°C
Wind Pressure Rain
since 9am
mm
Weather Cloud Vis
km
Sea
Height
m
Swell
Dir
 
Speed
knots
Gust
knots
hPa Trend Height
m
Period
s
Dir
01/11:30pm 18.2 ESE 8 14 1015.3 - 0.0 - - - - - - -
01/11:00pm 18.2 ESE 11 17 1015.1 - 0.0 - - - - - - -
01/10:30pm 18.3 ESE 10 19 1015.3 - 0.0 - - - - - - -
01/10:00pm 18.4 ESE 12 17 1015.2 - 0.0 - - - - - - -
01/09:30pm 18.5 ESE 10 16 1015.1 - 0.0 - - - - - - -
01/09:00pm 18.5 ESE 11 17 1014.6 - 0.0 - - - - - - -
01/08:30pm 18.6 ESE 9 16 1014.5 - 0.0 - - - - - - -
01/08:00pm 18.8 ESE 12 20 1014.5 - 0.0 - - - - - - -
01/07:30pm 18.9 ESE 12 18 1014.2 - 0.0 - - - - - - -
01/07:00pm 19.1 ESE 11 17 1014.7 - 0.0 - - - - - - -
01/06:30pm 19.8 ESE 11 18 1014.7 - 0.0 - - - - - - -
01/06:00pm 19.6 ESE 12 19 1014.7 - 0.0 - - - - - - -
01/05:30pm 19.9 ESE 13 19 1014.8 - 0.0 Haze Mostly cloudy 25 - - - -
01/05:00pm 21.0 ESE 13 18 1015.0 - 0.0 - - - - - - -
01/04:30pm 20.7 ESE 12 18 1015.5 - 0.0 - - - - - - -
01/04:00pm 20.4 ESE 11 17 1015.8 - 0.0 - - - - - - -

Other Formats:

Comma delimited format used in spreadsheet applications
http://www.bom.gov.au/fwo/IDS60701/IDS60701.94647.axf

JavaScript Object Notation format (JSON) in row-major order
http://www.bom.gov.au/fwo/IDS60701/IDS60701.94647.json